アティラウ の空港の天気 - METARとTAF

Atyrau Airport ( UATG / GUW ) - カザフスタン Atyrau
飛行場実況気象(Metar)
観測時間03/29 02:00 +05 (03/28 21:00 UTC)
風向・風速南西 11m/s 瞬間風速16m/s
視程10km以上
天気現象
全天の8割程度の雲 雲底高度 1010m
気温6℃
湿度81%
気圧1005hPa
METARUATG 282100Z 22011G16MPS 9999 BKN033CB 06/03 Q1005 R14/CLRD70 NOSIG RMK QFE755/1007
過去の天気等 Google飛行場航空写真 Wunderground天気予報

過去48時間のMETAR

飛行場予報(TAF)
発表時間: 3/28 22:01 +05 (3/28 17:01 UTC)
予報対象時間: 28日23時 +05 ~ 29日23時 +05
風向・風速南西 9m/s 瞬間風速 14m/s
視程3,000m
天気現象もや
全天の8割程度の積乱雲 雲底高度 610m
28日23時 +05 ~ 29日3時 +05 に一時的に
天気現象弱いしゅう雨
全天の8割程度の雲 雲底高度 150m
全天の8割程度の積乱雲 雲底高度 460m
29日3時 +05 ~ 29日9時 +05 に一時的に
天気現象弱いしゅう雨
全天の8割程度の雲 雲底高度 90m
全天の8割程度の積乱雲 雲底高度 300m
29日9時 +05 ~ 29日11時 +05 に徐々に
風向・風速西 11m/s 瞬間風速 16m/s
視程10km以上
天気現象運行に影響にある天気現象が終了
TAF UATG 281701Z 2818/2918 22009G14MPS 3000 BR BKN020CB TX08/2911Z TN02/2903Z
TEMPO 2818/2822 -SHRA BKN005 BKN015CB
TEMPO 2822/2904 -SHRA BKN003 BKN010CB
BECMG 2904/2906 28011G16MPS 9999 NSW